Time;durP1;ratioP1;P1;durP2;ratioP2;P2;SDS_P1;SDS_P2;PMS_P1;PMS_P2;Temp;Humidity;BMP_temperature;BMP_pressure;BME280_temperature;BME280_humidity;BME280_pressure;Samples;Min_cycle;Max_cycle;Signal;HPM_P1;HPM_P2
2022/03/21 00:00:57;;;;;;;;;;;;;;;;;;4949569;28;132599;-65
2022/03/21 00:03:28;;;;;;;;;;;;;;;;;;4948935;28;123622;-65
2022/03/21 00:05:55;;;;;;;;;;;;;;;;;;4949760;28;136059;-64
2022/03/21 00:08:22;;;;;;;;;;;;;;;;;;4958611;28;136283;-63
2022/03/21 00:10:48;;;;;;;;;;;;;;;;;;4957692;28;107842;-64
2022/03/21 00:13:15;;;;;;;;;;;;;;;;;;4940954;28;135283;-64
2022/03/21 00:15:41;;;;;;;;;;;;;;;;;;4948633;28;135499;-65
2022/03/21 00:18:08;;;;;;;;;;;;;;;;;;4946172;28;129421;-64
2022/03/21 00:20:34;;;;;;;;;;;;;;;;;;4954887;28;135503;-64
2022/03/21 00:23:00;;;;;;;;;;;;;;;;;;4949965;28;123153;-64
2022/03/21 00:25:27;;;;;;;;;;;;;;;;;;4948636;28;136410;-64
2022/03/21 00:27:53;;;;;;;;;;;;;;;;;;4946490;28;136968;-63
2022/03/21 00:30:19;;;;;;;;;;;;;;;;;;4948208;28;106126;-63
2022/03/21 00:32:46;;;;;;;;;;;;;;;;;;4942060;28;137649;-63
2022/03/21 00:35:14;;;;;;;;;;;;;;;;;;4939837;28;138415;-63
2022/03/21 00:37:41;;;;;;;;;;;;;;;;;;4954535;28;106260;-65
2022/03/21 00:40:07;;;;;;;;;;;;;;;;;;4954583;28;108329;-64
2022/03/21 00:42:34;;;;;;;;;;;;;;;;;;4946447;28;106287;-64
2022/03/21 00:45:00;;;;;;;;;;;;;;;;;;4955030;28;134901;-64
2022/03/21 00:47:26;;;;;;;;;;;;;;;;;;4951611;28;135289;-63
2022/03/21 00:49:52;;;;;;;;;;;;;;;;;;4946077;28;117722;-63
2022/03/21 00:52:19;;;;;;;;;;;;;;;;;;4945743;28;137459;-63
2022/03/21 00:54:46;;;;;;;;;;;;;;;;;;4950411;28;135759;-64
2022/03/21 00:57:12;;;;;;;;;;;;;;;;;;4942238;28;106173;-65
2022/03/21 00:59:38;;;;;;;;;;;;;;;;;;4953723;28;124485;-64
2022/03/21 01:02:09;;;;;;;;;;;;;;;;;;4941973;28;106244;-65
2022/03/21 01:04:36;;;;;;;;;;;;;;;;;;4945784;28;122181;-64
2022/03/21 01:07:03;;;;;;;;;;;;;;;;;;4951627;28;108501;-67
2022/03/21 01:09:29;;;;;;;;;;;;;;;;;;4948902;28;113264;-63
2022/03/21 01:11:55;;;;;;;;;;;;;;;;;;4945134;28;136498;-63
2022/03/21 01:14:22;;;;;;;;;;;;;;;;;;4946215;28;136746;-64
2022/03/21 01:16:50;;;;;;;;;;;;;;;;;;4951110;28;123160;-64
2022/03/21 01:19:16;;;;;;;;;;;;;;;;;;4949576;28;135174;-64
2022/03/21 01:21:42;;;;;;;;;;;;;;;;;;4944366;28;136284;-65
2022/03/21 01:24:08;;;;;;;;;;;;;;;;;;4947457;28;137478;-63
2022/03/21 01:26:35;;;;;;;;;;;;;;;;;;4942836;28;115243;-64
2022/03/21 01:29:01;;;;;;;;;;;;;;;;;;4938201;28;108252;-63
2022/03/21 01:31:28;;;;;;;;;;;;;;;;;;4943678;28;107065;-63
2022/03/21 01:33:54;;;;;;;;;;;;;;;;;;4944881;28;138086;-63
2022/03/21 01:36:20;;;;;;;;;;;;;;;;;;4948828;28;106069;-64
2022/03/21 01:38:46;;;;;;;;;;;;;;;;;;4943860;28;106569;-63
2022/03/21 01:41:13;;;;;;;;;;;;;;;;;;4947949;28;135646;-63
2022/03/21 01:43:39;;;;;;;;;;;;;;;;;;4945727;28;122756;-62
2022/03/21 01:46:06;;;;;;;;;;;;;;;;;;4945866;28;136835;-63
2022/03/21 01:48:32;;;;;;;;;;;;;;;;;;4946842;28;123261;-64
2022/03/21 01:50:59;;;;;;;;;;;;;;;;;;4952950;28;135779;-63
2022/03/21 01:56:10;;;;;;;;;;;;;;;;;;4945578;28;122705;-64
2022/03/21 01:58:37;;;;;;;;;;;;;;;;;;4954448;28;135550;-63
2022/03/21 02:01:03;;;;;;;;;;;;;;;;;;4954501;28;107260;-63
2022/03/21 02:03:30;;;;;;;;;;;;;;;;;;4960575;28;123154;-64
2022/03/21 02:05:56;;;;;;;;;;;;;;;;;;4953621;28;135699;-65
2022/03/21 02:08:22;;;;;;;;;;;;;;;;;;4953547;28;123132;-67
2022/03/21 02:10:51;;;;;;;;;;;;;;;;;;4975871;22;135929;-64
2022/03/21 02:13:18;;;;;;;;;;;;;;;;;;5010393;28;135687;-64
2022/03/21 02:15:44;;;;;;;;;;;;;;;;;;5006804;28;123322;-65
2022/03/21 02:18:10;;;;;;;;;;;;;;;;;;5004621;28;136367;-65
2022/03/21 02:20:37;;;;;;;;;;;;;;;;;;5006826;27;135739;-64
2022/03/21 02:23:07;;;;;;;;;;;;;;;;;;5005877;28;124400;-64
2022/03/21 02:25:34;;;;;;;;;;;;;;;;;;5013162;28;136428;-65
2022/03/21 02:28:00;;;;;;;;;;;;;;;;;;5008678;28;114836;-65
2022/03/21 02:30:27;;;;;;;;;;;;;;;;;;5004951;28;136283;-64
2022/03/21 02:32:53;;;;;;;;;;;;;;;;;;5004089;28;135631;-64
2022/03/21 02:35:19;;;;;;;;;;;;;;;;;;5008941;28;122400;-63
2022/03/21 02:37:46;;;;;;;;;;;;;;;;;;5003451;27;108232;-64
2022/03/21 02:40:12;;;;;;;;;;;;;;;;;;5001107;28;135780;-63
2022/03/21 02:42:38;;;;;;;;;;;;;;;;;;5007645;28;122517;-63
2022/03/21 02:45:05;;;;;;;;;;;;;;;;;;5007748;28;137004;-64
2022/03/21 02:47:31;;;;;;;;;;;;;;;;;;5010828;28;138282;-63
2022/03/21 02:49:57;;;;;;;;;;;;;;;;;;5009250;28;136438;-66
2022/03/21 02:52:23;;;;;;;;;;;;;;;;;;5009918;28;138364;-63
2022/03/21 02:54:50;;;;;;;;;;;;;;;;;;5008819;27;122259;-63
2022/03/21 02:57:16;;;;;;;;;;;;;;;;;;5009164;27;119217;-63
2022/03/21 02:59:42;;;;;;;;;;;;;;;;;;5010028;28;137046;-63
2022/03/21 03:02:09;;;;;;;;;;;;;;;;;;5006435;28;123072;-64
2022/03/21 03:04:35;;;;;;;;;;;;;;;;;;5007503;28;137228;-63
2022/03/21 03:07:01;;;;;;;;;;;;;;;;;;5011763;28;107256;-63
2022/03/21 03:09:28;;;;;;;;;;;;;;;;;;5008459;28;121868;-63
2022/03/21 03:11:54;;;;;;;;;;;;;;;;;;4996682;28;135526;-64
2022/03/21 03:14:20;;;;;;;;;;;;;;;;;;5003911;28;121336;-64
2022/03/21 03:16:47;;;;;;;;;;;;;;;;;;5003671;28;128207;-63
2022/03/21 03:19:13;;;;;;;;;;;;;;;;;;4992515;28;107470;-63
2022/03/21 03:21:39;;;;;;;;;;;;;;;;;;4999298;28;121331;-63
2022/03/21 03:24:06;;;;;;;;;;;;;;;;;;5000695;28;137086;-63
2022/03/21 03:26:32;;;;;;;;;;;;;;;;;;4998280;27;137178;-64
2022/03/21 03:28:58;;;;;;;;;;;;;;;;;;5008214;28;122239;-63
2022/03/21 03:31:24;;;;;;;;;;;;;;;;;;5004905;28;136430;-63
2022/03/21 03:33:51;;;;;;;;;;;;;;;;;;4999237;28;123013;-63
2022/03/21 03:36:17;;;;;;;;;;;;;;;;;;5009533;28;136667;-64
2022/03/21 03:38:43;;;;;;;;;;;;;;;;;;5009049;28;137584;-64
2022/03/21 03:41:10;;;;;;;;;;;;;;;;;;5003414;27;121810;-64
2022/03/21 03:43:36;;;;;;;;;;;;;;;;;;4991653;28;136361;-64
2022/03/21 03:46:02;;;;;;;;;;;;;;;;;;5006942;28;135382;-63
2022/03/21 03:48:29;;;;;;;;;;;;;;;;;;5005599;28;123574;-63
2022/03/21 03:50:56;;;;;;;;;;;;;;;;;;5002126;28;136374;-63
2022/03/21 03:53:22;;;;;;;;;;;;;;;;;;5009339;28;135943;-63
2022/03/21 03:55:48;;;;;;;;;;;;;;;;;;4983795;28;133493;-63
2022/03/21 03:58:15;;;;;;;;;;;;;;;;;;4986539;27;135588;-63
2022/03/21 04:00:41;;;;;;;;;;;;;;;;;;5006298;28;125986;-64
2022/03/21 04:05:52;;;;;;;;;;;;;;;;;;5001579;28;135054;-64
2022/03/21 04:08:19;;;;;;;;;;;;;;;;;;5002342;28;123051;-63
2022/03/21 04:10:45;;;;;;;;;;;;;;;;;;4980200;28;121621;-63
2022/03/21 04:13:11;;;;;;;;;;;;;;;;;;5003073;28;136165;-63
2022/03/21 04:15:38;;;;;;;;;;;;;;;;;;5008392;27;133677;-63
2022/03/21 04:18:07;;;;;;;;;;;;;;;;;;4993875;28;137885;-66
2022/03/21 04:20:36;;;;;;;;;;;;;;;;;;5007841;28;124094;-63
2022/03/21 04:23:02;;;;;;;;;;;;;;;;;;4991453;28;131148;-63
2022/03/21 04:25:29;;;;;;;;;;;;;;;;;;4985268;28;139249;-63
2022/03/21 04:27:55;;;;;;;;;;;;;;;;;;5008836;28;123121;-63
2022/03/21 04:30:21;;;;;;;;;;;;;;;;;;4998206;28;136266;-63
2022/03/21 04:32:47;;;;;;;;;;;;;;;;;;5007918;28;135823;-64
2022/03/21 04:35:14;;;;;;;;;;;;;;;;;;5003804;27;123348;-64
2022/03/21 04:37:40;;;;;;;;;;;;;;;;;;5005391;28;136937;-63
2022/03/21 04:40:07;;;;;;;;;;;;;;;;;;5006126;28;121993;-64
2022/03/21 04:42:33;;;;;;;;;;;;;;;;;;5008953;28;134608;-63
2022/03/21 04:44:59;;;;;;;;;;;;;;;;;;5006890;28;136162;-64
2022/03/21 04:47:25;;;;;;;;;;;;;;;;;;5001790;28;121073;-65
2022/03/21 04:49:52;;;;;;;;;;;;;;;;;;5000766;28;136851;-65
2022/03/21 04:52:18;;;;;;;;;;;;;;;;;;4998117;28;137071;-65
2022/03/21 04:54:44;;;;;;;;;;;;;;;;;;4984382;28;124198;-65
2022/03/21 04:57:12;;;;;;;;;;;;;;;;;;5006172;28;137235;-65
2022/03/21 04:59:38;;;;;;;;;;;;;;;;;;5005781;28;114849;-65
2022/03/21 05:02:04;;;;;;;;;;;;;;;;;;5003242;28;107156;-67
2022/03/21 05:04:31;;;;;;;;;;;;;;;;;;5000661;28;136803;-65
2022/03/21 05:06:57;;;;;;;;;;;;;;;;;;4998429;28;121063;-64
2022/03/21 05:09:23;;;;;;;;;;;;;;;;;;4993772;28;136355;-65
2022/03/21 05:11:50;;;;;;;;;;;;;;;;;;5005848;28;138003;-63
2022/03/21 05:14:17;;;;;;;;;;;;;;;;;;5002369;28;125238;-65
2022/03/21 05:16:43;;;;;;;;;;;;;;;;;;4999884;28;135766;-63
2022/03/21 05:19:09;;;;;;;;;;;;;;;;;;5006266;28;124866;-64
2022/03/21 05:21:38;;;;;;;;;;;;;;;;;;5003054;28;135352;-65
2022/03/21 05:32:20;;;;;;;;;;;;;;;;;;4997971;28;137584;-65
2022/03/21 05:37:31;;;;;;;;;;;;;;;;;;5006301;27;127033;-63
2022/03/21 05:42:43;;;;;;;;;;;;;;;;;;5009144;28;114382;-64
2022/03/21 05:45:10;;;;;;;;;;;;;;;;;;5007886;28;135661;-65
2022/03/21 05:48:50;;;;;;;;;;;;;;;;;;5011663;28;122455;-64
2022/03/21 05:50:23;;;;;;;;;;;;;;;;;;5003756;28;135181;-63
2022/03/21 05:52:49;;;;;;;;;;;;;;;;;;4996235;28;135630;-63
2022/03/21 05:55:16;;;;;;;;;;;;;;;;;;5010299;28;122530;-62
2022/03/21 05:57:42;;;;;;;;;;;;;;;;;;5009308;27;113783;-63
2022/03/21 06:00:21;;;;;;;;;;;;;;;;;;5000880;28;136934;-63
2022/03/21 06:02:47;;;;;;;;;;;;;;;;;;4990916;28;123108;-63
2022/03/21 06:05:13;;;;;;;;;;;;;;;;;;5001885;28;135891;-63
2022/03/21 06:07:40;;;;;;;;;;;;;;;;;;5004425;28;122782;-63
2022/03/21 06:10:06;;;;;;;;;;;;;;;;;;5010370;28;131265;-63
2022/03/21 06:12:32;;;;;;;;;;;;;;;;;;5008169;28;134661;-64
2022/03/21 06:14:59;;;;;;;;;;;;;;;;;;5006636;27;122987;-63
2022/03/21 06:17:25;;;;;;;;;;;;;;;;;;5011519;28;136544;-63
2022/03/21 06:19:51;;;;;;;;;;;;;;;;;;5002402;28;136162;-63
2022/03/21 06:22:17;;;;;;;;;;;;;;;;;;5010808;28;122148;-63
2022/03/21 06:24:44;;;;;;;;;;;;;;;;;;5008752;28;136668;-63
2022/03/21 06:27:10;;;;;;;;;;;;;;;;;;5006114;28;121874;-63
2022/03/21 06:29:41;;;;;;;;;;;;;;;;;;5000044;28;116872;-62
2022/03/21 06:32:08;;;;;;;;;;;;;;;;;;4996427;27;131242;-65
2022/03/21 06:34:34;;;;;;;;;;;;;;;;;;5003663;28;123305;-63
2022/03/21 06:37:02;;;;;;;;;;;;;;;;;;5002528;28;115966;-63
2022/03/21 06:39:28;;;;;;;;;;;;;;;;;;4999968;28;136941;-62
2022/03/21 06:41:54;;;;;;;;;;;;;;;;;;5005350;28;122222;-63
2022/03/21 06:44:21;;;;;;;;;;;;;;;;;;5005981;28;135127;-63
2022/03/21 06:46:47;;;;;;;;;;;;;;;;;;5003009;28;137684;-64
2022/03/21 06:49:13;;;;;;;;;;;;;;;;;;5010337;27;109784;-63
2022/03/21 06:51:40;;;;;;;;;;;;;;;;;;5004586;28;138014;-63
2022/03/21 06:54:06;;;;;;;;;;;;;;;;;;5005818;28;125160;-63
2022/03/21 06:56:32;;;;;;;;;;;;;;;;;;5003902;28;136193;-63
2022/03/21 06:58:59;;;;;;;;;;;;;;;;;;5007574;28;135691;-65
2022/03/21 07:01:25;;;;;;;;;;;;;;;;;;5002797;27;123000;-63
2022/03/21 07:03:51;;;;;;;;;;;;;;;;;;4996568;28;138183;-63
2022/03/21 07:06:19;;;;;;;;;;;;;;;;;;5006952;27;137375;-63
2022/03/21 07:08:51;;;;;;;;;;;;;;;;;;5011653;28;123088;-63
2022/03/21 07:11:18;;;;;;;;;;;;;;;;;;4984921;28;136943;-63
2022/03/21 07:13:44;;;;;;;;;;;;;;;;;;5007592;28;121865;-63
2022/03/21 07:16:16;;;;;;;;;;;;;;;;;;4997575;28;135391;-63
2022/03/21 07:18:42;;;;;;;;;;;;;;;;;;4999990;28;136400;-63
2022/03/21 07:21:08;;;;;;;;;;;;;;;;;;5009060;28;122712;-63
2022/03/21 07:23:35;;;;;;;;;;;;;;;;;;5006819;28;136658;-64
2022/03/21 07:26:02;;;;;;;;;;;;;;;;;;5010057;28;107427;-63
2022/03/21 07:28:28;;;;;;;;;;;;;;;;;;5000892;28;121887;-63
2022/03/21 07:31:15;;;;;;;;;;;;;;;;;;5005035;28;106219;-63
2022/03/21 07:33:41;;;;;;;;;;;;;;;;;;5008084;28;120282;-63
2022/03/21 07:36:07;;;;;;;;;;;;;;;;;;5008031;28;134897;-63
2022/03/21 07:38:35;;;;;;;;;;;;;;;;;;5011338;28;107017;-66
2022/03/21 07:41:01;;;;;;;;;;;;;;;;;;5000579;28;116272;-62
2022/03/21 07:43:27;;;;;;;;;;;;;;;;;;4995968;27;135164;-63
2022/03/21 07:48:39;;;;;;;;;;;;;;;;;;4996308;27;123100;-63
2022/03/21 07:51:07;;;;;;;;;;;;;;;;;;4998853;27;137753;-64
2022/03/21 07:53:33;;;;;;;;;;;;;;;;;;5002534;27;135812;-62
2022/03/21 07:56:00;;;;;;;;;;;;;;;;;;4998819;27;106458;-63
2022/03/21 07:58:26;;;;;;;;;;;;;;;;;;5001319;27;137180;-63
2022/03/21 08:00:52;;;;;;;;;;;;;;;;;;5002772;28;123106;-65
2022/03/21 08:03:19;;;;;;;;;;;;;;;;;;4988330;28;136959;-64
2022/03/21 08:05:46;;;;;;;;;;;;;;;;;;5008361;28;135844;-65
2022/03/21 08:08:12;;;;;;;;;;;;;;;;;;5003463;27;108649;-64
2022/03/21 08:10:39;;;;;;;;;;;;;;;;;;5004662;28;136517;-64
2022/03/21 08:13:05;;;;;;;;;;;;;;;;;;4992178;28;137792;-65
2022/03/21 08:15:33;;;;;;;;;;;;;;;;;;5007081;28;119999;-64
2022/03/21 08:18:03;;;;;;;;;;;;;;;;;;4999129;28;135334;-64
2022/03/21 08:20:33;;;;;;;;;;;;;;;;;;4994144;28;117317;-64
2022/03/21 08:23:00;;;;;;;;;;;;;;;;;;5001661;28;106687;-64
2022/03/21 08:25:27;;;;;;;;;;;;;;;;;;5008604;28;116968;-64
2022/03/21 08:27:53;;;;;;;;;;;;;;;;;;5007904;28;123176;-64
2022/03/21 08:30:19;;;;;;;;;;;;;;;;;;5002748;28;136935;-63
2022/03/21 08:32:46;;;;;;;;;;;;;;;;;;5007377;28;129152;-63
2022/03/21 08:35:12;;;;;;;;;;;;;;;;;;5005630;28;107090;-63
2022/03/21 08:37:39;;;;;;;;;;;;;;;;;;5005677;28;135211;-63
2022/03/21 08:40:06;;;;;;;;;;;;;;;;;;5003484;28;123624;-63
2022/03/21 08:42:33;;;;;;;;;;;;;;;;;;4990919;28;127779;-63
2022/03/21 08:45:00;;;;;;;;;;;;;;;;;;5000239;27;137543;-63
2022/03/21 08:47:27;;;;;;;;;;;;;;;;;;5002074;28;123217;-65
2022/03/21 08:49:53;;;;;;;;;;;;;;;;;;5000863;28;137904;-63
2022/03/21 08:52:19;;;;;;;;;;;;;;;;;;4998765;28;139533;-68
2022/03/21 08:54:45;;;;;;;;;;;;;;;;;;5001282;27;124174;-64
2022/03/21 08:57:12;;;;;;;;;;;;;;;;;;5014462;27;136106;-64
2022/03/21 08:59:38;;;;;;;;;;;;;;;;;;4993976;27;121720;-62
2022/03/21 09:02:04;;;;;;;;;;;;;;;;;;5000362;27;121547;-63
2022/03/21 09:04:31;;;;;;;;;;;;;;;;;;4999091;28;137721;-63
2022/03/21 09:06:57;;;;;;;;;;;;;;;;;;5001642;28;119440;-63
2022/03/21 09:09:23;;;;;;;;;;;;;;;;;;5002693;27;137238;-63
2022/03/21 09:11:53;;;;;;;;;;;;;;;;;;5007651;27;136915;-64
2022/03/21 09:14:19;;;;;;;;;;;;;;;;;;4998830;27;107467;-64
2022/03/21 09:16:45;;;;;;;;;;;;;;;;;;5004714;27;135254;-64
2022/03/21 09:19:13;;;;;;;;;;;;;;;;;;5007646;27;135794;-64
2022/03/21 09:21:39;;;;;;;;;;;;;;;;;;5005170;28;136261;-63
2022/03/21 09:24:05;;;;;;;;;;;;;;;;;;5000072;27;136929;-63
2022/03/21 09:26:32;;;;;;;;;;;;;;;;;;4995961;27;121488;-63
2022/03/21 09:29:03;;;;;;;;;;;;;;;;;;5002516;27;135121;-63
2022/03/21 09:31:29;;;;;;;;;;;;;;;;;;4996920;28;137124;-63
2022/03/21 09:34:04;;;;;;;;;;;;;;;;;;5007893;28;123829;-64
2022/03/21 09:36:31;;;;;;;;;;;;;;;;;;5001561;27;118597;-63
2022/03/21 09:38:57;;;;;;;;;;;;;;;;;;5004668;27;135905;-62
2022/03/21 09:41:25;;;;;;;;;;;;;;;;;;5010659;27;122144;-62
2022/03/21 09:43:52;;;;;;;;;;;;;;;;;;5005714;28;138202;-63
2022/03/21 09:46:19;;;;;;;;;;;;;;;;;;5009445;28;121390;-62
2022/03/21 09:48:46;;;;;;;;;;;;;;;;;;5009900;28;124396;-62
2022/03/21 09:51:12;;;;;;;;;;;;;;;;;;5005223;28;118858;-63
2022/03/21 09:53:39;;;;;;;;;;;;;;;;;;5010467;27;123191;-63
2022/03/21 09:56:08;;;;;;;;;;;;;;;;;;5003766;28;119327;-64
2022/03/21 09:58:35;;;;;;;;;;;;;;;;;;5005314;28;137766;-63
2022/03/21 10:01:02;;;;;;;;;;;;;;;;;;5001550;28;122984;-64
2022/03/21 10:03:30;;;;;;;;;;;;;;;;;;5005355;28;136098;-63
2022/03/21 10:05:57;;;;;;;;;;;;;;;;;;5003708;28;106606;-63
2022/03/21 10:08:24;;;;;;;;;;;;;;;;;;5000887;27;135054;-63
2022/03/21 10:10:50;;;;;;;;;;;;;;;;;;5005772;28;119781;-63
2022/03/21 10:13:16;;;;;;;;;;;;;;;;;;5008792;27;118001;-64
2022/03/21 10:15:42;;;;;;;;;;;;;;;;;;5000659;28;133865;-63
2022/03/21 10:18:09;;;;;;;;;;;;;;;;;;5000248;27;137059;-66
2022/03/21 10:20:35;;;;;;;;;;;;;;;;;;5004276;27;122023;-64
2022/03/21 10:23:01;;;;;;;;;;;;;;;;;;5016600;27;132215;-63
2022/03/21 10:25:28;;;;;;;;;;;;;;;;;;5000541;27;106348;-63
2022/03/21 10:27:54;;;;;;;;;;;;;;;;;;4999031;27;132636;-63
2022/03/21 10:30:20;;;;;;;;;;;;;;;;;;4995060;28;111096;-66
2022/03/21 10:32:47;;;;;;;;;;;;;;;;;;4976574;28;122353;-63
2022/03/21 10:35:13;;;;;;;;;;;;;;;;;;5008817;27;137088;-63
2022/03/21 10:37:39;;;;;;;;;;;;;;;;;;5008540;28;137414;-63
2022/03/21 10:40:05;;;;;;;;;;;;;;;;;;5007997;27;124147;-64
2022/03/21 10:42:32;;;;;;;;;;;;;;;;;;4994199;27;134719;-64
2022/03/21 10:45:02;;;;;;;;;;;;;;;;;;4998407;27;107719;-63
2022/03/21 10:47:28;;;;;;;;;;;;;;;;;;4996816;28;136572;-64
2022/03/21 10:49:54;;;;;;;;;;;;;;;;;;4993397;27;137700;-64
2022/03/21 10:52:22;;;;;;;;;;;;;;;;;;5004698;28;106151;-63
2022/03/21 10:54:48;;;;;;;;;;;;;;;;;;5002767;27;135536;-66
2022/03/21 10:57:14;;;;;;;;;;;;;;;;;;4989995;27;122578;-65
2022/03/21 10:59:41;;;;;;;;;;;;;;;;;;4997697;28;126501;-63
2022/03/21 11:02:07;;;;;;;;;;;;;;;;;;5005509;28;137355;-64
2022/03/21 11:04:33;;;;;;;;;;;;;;;;;;5004397;28;129258;-65
2022/03/21 11:07:00;;;;;;;;;;;;;;;;;;5004767;28;121963;-63
2022/03/21 11:09:26;;;;;;;;;;;;;;;;;;5003844;28;135775;-64
2022/03/21 11:11:52;;;;;;;;;;;;;;;;;;4998587;27;123166;-63
2022/03/21 11:14:19;;;;;;;;;;;;;;;;;;5001568;27;137554;-64
2022/03/21 11:16:45;;;;;;;;;;;;;;;;;;5003870;28;138167;-64
2022/03/21 11:19:11;;;;;;;;;;;;;;;;;;5009293;28;121939;-65
2022/03/21 11:21:37;;;;;;;;;;;;;;;;;;4997977;28;135126;-62
2022/03/21 11:24:04;;;;;;;;;;;;;;;;;;4995827;27;127673;-67
2022/03/21 11:26:31;;;;;;;;;;;;;;;;;;4993358;27;123419;-63
2022/03/21 11:28:58;;;;;;;;;;;;;;;;;;4997097;27;106739;-63
2022/03/21 11:31:25;;;;;;;;;;;;;;;;;;5002482;27;121892;-64
2022/03/21 11:33:51;;;;;;;;;;;;;;;;;;5005714;28;135040;-62
2022/03/21 11:36:17;;;;;;;;;;;;;;;;;;5003073;28;112056;-63
2022/03/21 11:38:47;;;;;;;;;;;;;;;;;;5009396;28;123321;-66
2022/03/21 11:41:13;;;;;;;;;;;;;;;;;;5001368;27;133164;-63
2022/03/21 11:43:40;;;;;;;;;;;;;;;;;;5001461;28;138035;-63
2022/03/21 11:46:06;;;;;;;;;;;;;;;;;;5001403;27;122741;-63
2022/03/21 11:48:32;;;;;;;;;;;;;;;;;;5002465;28;116256;-63
2022/03/21 11:50:59;;;;;;;;;;;;;;;;;;5009255;27;138402;-63
2022/03/21 11:53:25;;;;;;;;;;;;;;;;;;5002469;27;137077;-62
2022/03/21 11:55:51;;;;;;;;;;;;;;;;;;5001573;28;137921;-64
2022/03/21 11:58:32;;;;;;;;;;;;;;;;;;5006187;28;107775;-64
2022/03/21 12:00:59;;;;;;;;;;;;;;;;;;5009052;28;107128;-66
2022/03/21 12:03:25;;;;;;;;;;;;;;;;;;5004373;28;123973;-64
2022/03/21 12:05:52;;;;;;;;;;;;;;;;;;4997222;28;121278;-63
2022/03/21 12:08:18;;;;;;;;;;;;;;;;;;5005066;28;137102;-63
2022/03/21 12:10:45;;;;;;;;;;;;;;;;;;5000712;27;131914;-64
2022/03/21 12:13:19;;;;;;;;;;;;;;;;;;5000727;27;125885;-63
2022/03/21 12:15:45;;;;;;;;;;;;;;;;;;4985358;27;135780;-63
2022/03/21 12:18:12;;;;;;;;;;;;;;;;;;4994565;27;107383;-63
2022/03/21 12:20:38;;;;;;;;;;;;;;;;;;4998023;28;137282;-62
2022/03/21 12:23:04;;;;;;;;;;;;;;;;;;5002202;28;137491;-62
2022/03/21 12:25:31;;;;;;;;;;;;;;;;;;4995859;28;123761;-62
2022/03/21 12:27:57;;;;;;;;;;;;;;;;;;5005732;28;136941;-62
2022/03/21 12:30:23;;;;;;;;;;;;;;;;;;5003959;28;135898;-62
2022/03/21 12:32:50;;;;;;;;;;;;;;;;;;5006306;28;120393;-63
2022/03/21 12:35:16;;;;;;;;;;;;;;;;;;4990759;28;127145;-65
2022/03/21 12:37:44;;;;;;;;;;;;;;;;;;5005680;28;126697;-62
2022/03/21 12:40:10;;;;;;;;;;;;;;;;;;5007706;28;126193;-62
2022/03/21 12:42:42;;;;;;;;;;;;;;;;;;5007158;28;137022;-66
2022/03/21 12:45:08;;;;;;;;;;;;;;;;;;4996381;28;123282;-63
2022/03/21 12:47:34;;;;;;;;;;;;;;;;;;5003312;28;134211;-63
2022/03/21 12:50:01;;;;;;;;;;;;;;;;;;4979219;28;135104;-63
2022/03/21 12:52:27;;;;;;;;;;;;;;;;;;4981820;28;122377;-62
2022/03/21 12:54:53;;;;;;;;;;;;;;;;;;4998688;28;137015;-62
2022/03/21 12:57:19;;;;;;;;;;;;;;;;;;5003241;28;123517;-63
2022/03/21 12:59:46;;;;;;;;;;;;;;;;;;4994672;28;136061;-63
2022/03/21 13:02:12;;;;;;;;;;;;;;;;;;5006039;28;137500;-63
2022/03/21 13:12:54;;;;;;;;;;;;;;;;;;5000786;27;122450;-64
2022/03/21 13:15:20;;;;;;;;;;;;;;;;;;4998872;28;137187;-63
2022/03/21 13:17:48;;;;;;;;;;;;;;;;;;4994734;28;137999;-63
2022/03/21 13:20:33;;;;;;;;;;;;;;;;;;4990440;28;137145;-63
2022/03/21 13:22:59;;;;;;;;;;;;;;;;;;4998938;27;135433;-63
2022/03/21 13:25:26;;;;;;;;;;;;;;;;;;5005929;28;122611;-63
2022/03/21 13:27:52;;;;;;;;;;;;;;;;;;5007712;28;138231;-63
2022/03/21 13:30:18;;;;;;;;;;;;;;;;;;4991820;28;136259;-64
2022/03/21 13:32:45;;;;;;;;;;;;;;;;;;4995320;27;106884;-62
2022/03/21 13:35:12;;;;;;;;;;;;;;;;;;4999307;27;137781;-62
2022/03/21 13:37:38;;;;;;;;;;;;;;;;;;4988603;28;136191;-62
2022/03/21 13:40:05;;;;;;;;;;;;;;;;;;5006698;27;124939;-62
2022/03/21 13:42:31;;;;;;;;;;;;;;;;;;4994961;28;138293;-65
2022/03/21 13:45:02;;;;;;;;;;;;;;;;;;5000878;27;122039;-62
2022/03/21 13:47:28;;;;;;;;;;;;;;;;;;4999882;28;137214;-62
2022/03/21 13:49:54;;;;;;;;;;;;;;;;;;4995138;27;137059;-64
2022/03/21 13:52:20;;;;;;;;;;;;;;;;;;5001322;27;125764;-62
2022/03/21 13:54:47;;;;;;;;;;;;;;;;;;4992931;27;138099;-64
2022/03/21 13:57:13;;;;;;;;;;;;;;;;;;4997963;27;136330;-64
2022/03/21 13:59:39;;;;;;;;;;;;;;;;;;4999996;27;123816;-64
2022/03/21 14:02:07;;;;;;;;;;;;;;;;;;5004139;27;137658;-65
2022/03/21 14:04:36;;;;;;;;;;;;;;;;;;4997238;28;107061;-63
2022/03/21 14:07:03;;;;;;;;;;;;;;;;;;5006808;27;136774;-63
2022/03/21 14:09:29;;;;;;;;;;;;;;;;;;5005368;27;109175;-63
2022/03/21 14:11:57;;;;;;;;;;;;;;;;;;5001453;27;124298;-62
2022/03/21 14:14:23;;;;;;;;;;;;;;;;;;5001282;27;129619;-62
2022/03/21 14:16:50;;;;;;;;;;;;;;;;;;4999261;27;137909;-62
2022/03/21 14:19:17;;;;;;;;;;;;;;;;;;4997041;28;124725;-62
2022/03/21 14:21:44;;;;;;;;;;;;;;;;;;4996567;27;109593;-63
2022/03/21 14:24:10;;;;;;;;;;;;;;;;;;5006893;27;138473;-64
2022/03/21 14:26:40;;;;;;;;;;;;;;;;;;5006258;28;136506;-63
2022/03/21 14:29:07;;;;;;;;;;;;;;;;;;5003378;27;139146;-63
2022/03/21 14:31:34;;;;;;;;;;;;;;;;;;4991884;27;124302;-63
2022/03/21 14:34:01;;;;;;;;;;;;;;;;;;4992042;28;138617;-63
2022/03/21 14:36:27;;;;;;;;;;;;;;;;;;4997220;27;138684;-64
2022/03/21 14:38:53;;;;;;;;;;;;;;;;;;5004367;27;124583;-62
2022/03/21 14:41:21;;;;;;;;;;;;;;;;;;5003349;28;108567;-64
2022/03/21 14:43:49;;;;;;;;;;;;;;;;;;5004787;28;139035;-63
2022/03/21 14:46:16;;;;;;;;;;;;;;;;;;5003758;27;123111;-65
2022/03/21 14:48:43;;;;;;;;;;;;;;;;;;5002566;28;128494;-64
2022/03/21 14:51:09;;;;;;;;;;;;;;;;;;5002434;27;124956;-67
2022/03/21 14:53:35;;;;;;;;;;;;;;;;;;5006176;28;138318;-65
2022/03/21 14:56:02;;;;;;;;;;;;;;;;;;5003647;27;139808;-65
2022/03/21 14:58:28;;;;;;;;;;;;;;;;;;5001789;28;122223;-65
2022/03/21 15:00:55;;;;;;;;;;;;;;;;;;5001765;27;131844;-64
2022/03/21 15:03:23;;;;;;;;;;;;;;;;;;5003691;27;138524;-65
2022/03/21 15:05:49;;;;;;;;;;;;;;;;;;5009792;28;127993;-64
2022/03/21 15:08:15;;;;;;;;;;;;;;;;;;4995950;28;139059;-65
2022/03/21 15:10:42;;;;;;;;;;;;;;;;;;5003714;28;126130;-65
2022/03/21 15:13:11;;;;;;;;;;;;;;;;;;5004272;28;109717;-65
2022/03/21 15:15:37;;;;;;;;;;;;;;;;;;4997885;28;139740;-66
2022/03/21 15:18:04;;;;;;;;;;;;;;;;;;4999614;28;127593;-68
2022/03/21 15:20:30;;;;;;;;;;;;;;;;;;4995225;27;139346;-64
2022/03/21 15:22:57;;;;;;;;;;;;;;;;;;4995450;27;139808;-66
2022/03/21 15:25:23;;;;;;;;;;;;;;;;;;4986651;28;125720;-64
2022/03/21 15:28:05;;;;;;;;;;;;;;;;;;5007234;28;138052;-64
2022/03/21 15:30:32;;;;;;;;;;;;;;;;;;4985532;28;126773;-64
2022/03/21 15:32:58;;;;;;;;;;;;;;;;;;5006110;28;139922;-63
2022/03/21 15:35:24;;;;;;;;;;;;;;;;;;5001527;28;139177;-63
2022/03/21 15:43:20;;;;;;;;;;;;;;;;;;4993458;28;133572;-63
2022/03/21 15:45:47;;;;;;;;;;;;;;;;;;5004111;28;125512;-63
2022/03/21 15:48:13;;;;;;;;;;;;;;;;;;4997636;28;122807;-64
2022/03/21 15:50:39;;;;;;;;;;;;;;;;;;5001461;28;139775;-63
2022/03/21 15:53:06;;;;;;;;;;;;;;;;;;4988698;28;138223;-64
2022/03/21 15:55:32;;;;;;;;;;;;;;;;;;4993157;28;110096;-64
2022/03/21 15:57:58;;;;;;;;;;;;;;;;;;5004848;27;109645;-64
2022/03/21 16:00:28;;;;;;;;;;;;;;;;;;5002292;28;139049;-63
2022/03/21 16:03:14;;;;;;;;;;;;;;;;;;5001041;28;110892;-63
2022/03/21 16:05:40;;;;;;;;;;;;;;;;;;4986227;28;109487;-63
2022/03/21 16:08:07;;;;;;;;;;;;;;;;;;5004130;28;138733;-64
2022/03/21 16:10:34;;;;;;;;;;;;;;;;;;5000352;28;141244;-63
2022/03/21 16:13:02;;;;;;;;;;;;;;;;;;5008752;28;108923;-64
2022/03/21 16:15:28;;;;;;;;;;;;;;;;;;4993672;28;137797;-63
2022/03/21 16:17:54;;;;;;;;;;;;;;;;;;4974279;28;124141;-63
2022/03/21 16:20:21;;;;;;;;;;;;;;;;;;4996287;28;139000;-62
2022/03/21 16:22:48;;;;;;;;;;;;;;;;;;4996338;28;109458;-63
2022/03/21 16:25:16;;;;;;;;;;;;;;;;;;4998623;28;123583;-62
2022/03/21 16:27:43;;;;;;;;;;;;;;;;;;5004658;28;135852;-62
2022/03/21 16:30:09;;;;;;;;;;;;;;;;;;4993853;28;139006;-65
2022/03/21 16:32:36;;;;;;;;;;;;;;;;;;4996476;28;122720;-63
2022/03/21 16:35:03;;;;;;;;;;;;;;;;;;5001181;28;137744;-63
2022/03/21 16:37:29;;;;;;;;;;;;;;;;;;4997705;28;124509;-63
2022/03/21 16:39:58;;;;;;;;;;;;;;;;;;5002854;28;107144;-63
2022/03/21 16:42:24;;;;;;;;;;;;;;;;;;5002479;28;138161;-63
2022/03/21 16:44:51;;;;;;;;;;;;;;;;;;4997236;28;125197;-63
2022/03/21 16:47:17;;;;;;;;;;;;;;;;;;5007331;28;136422;-63
2022/03/21 16:49:43;;;;;;;;;;;;;;;;;;5004410;28;120385;-63
2022/03/21 16:52:15;;;;;;;;;;;;;;;;;;4993959;28;123410;-65
2022/03/21 16:54:41;;;;;;;;;;;;;;;;;;5002268;27;107492;-63
2022/03/21 16:57:07;;;;;;;;;;;;;;;;;;5001431;28;126185;-64
2022/03/21 16:59:36;;;;;;;;;;;;;;;;;;4988050;28;107864;-67
2022/03/21 17:02:02;;;;;;;;;;;;;;;;;;5000322;28;135674;-64